createdAt,value
2019-05-20T00:00:54.109Z,14.60
2019-05-20T00:03:24.810Z,15.13
2019-05-20T00:05:55.861Z,15.07
2019-05-20T00:08:26.496Z,14.27
2019-05-20T00:10:57.389Z,14.87
2019-05-20T00:13:28.150Z,14.23
2019-05-20T00:15:58.943Z,14.30
2019-05-20T00:18:29.418Z,13.67
2019-05-20T00:21:00.246Z,13.77
2019-05-20T00:23:30.803Z,13.73
2019-05-20T00:26:02.747Z,13.50
2019-05-20T00:28:34.803Z,13.63
2019-05-20T00:31:06.325Z,12.83
2019-05-20T00:33:37.496Z,13.83
2019-05-20T00:36:08.126Z,13.33
2019-05-20T00:38:39.687Z,12.07
2019-05-20T00:41:10.465Z,12.40
2019-05-20T00:43:41.117Z,12.07
2019-05-20T00:46:11.943Z,12.50
2019-05-20T00:48:42.556Z,12.40
2019-05-20T00:51:13.197Z,10.70
2019-05-20T00:53:43.960Z,11.17
2019-05-20T00:56:14.728Z,14.10
2019-05-20T00:58:45.391Z,11.67
2019-05-20T01:01:15.940Z,11.67
2019-05-20T01:03:46.626Z,11.20
2019-05-20T01:06:17.294Z,12.00
2019-05-20T01:08:48.070Z,11.70
2019-05-20T01:11:18.722Z,11.47
2019-05-20T01:13:49.541Z,12.73
2019-05-20T01:16:20.358Z,11.13
2019-05-20T01:18:51.012Z,13.07
2019-05-20T01:21:21.952Z,12.50
2019-05-20T01:23:52.857Z,13.70
2019-05-20T01:26:23.732Z,11.97
2019-05-20T01:28:54.578Z,13.30
2019-05-20T01:31:25.259Z,12.97
2019-05-20T01:33:56.056Z,12.87
2019-05-20T01:36:26.758Z,12.70
2019-05-20T01:38:57.667Z,13.53
2019-05-20T01:41:28.274Z,12.63
2019-05-20T01:43:58.839Z,13.40
2019-05-20T01:46:29.525Z,13.50
2019-05-20T01:49:00.391Z,13.13
2019-05-20T01:51:39.183Z,13.00
2019-05-20T01:54:09.728Z,12.03
2019-05-20T01:56:41.257Z,13.70
2019-05-20T01:59:11.713Z,13.13
2019-05-20T02:01:42.286Z,13.83
2019-05-20T02:04:13.127Z,13.13
2019-05-20T02:06:43.801Z,13.27
2019-05-20T02:09:14.439Z,13.43
2019-05-20T02:11:45.245Z,14.40
2019-05-20T02:14:19.691Z,14.10
2019-05-20T02:16:50.250Z,13.83
2019-05-20T02:19:20.862Z,13.97
2019-05-20T02:21:51.891Z,13.90
2019-05-20T02:24:22.350Z,13.07
2019-05-20T02:26:52.846Z,13.57
2019-05-20T02:29:23.438Z,13.27
2019-05-20T02:31:54.075Z,13.53
2019-05-20T02:34:24.557Z,13.53
2019-05-20T02:36:55.193Z,14.53
2019-05-20T02:39:26.818Z,13.50
2019-05-20T02:41:57.605Z,13.07
2019-05-20T02:44:28.169Z,13.43
2019-05-20T02:46:58.805Z,13.07
2019-05-20T02:49:30.406Z,12.27
2019-05-20T02:52:01.169Z,12.93
2019-05-20T02:54:31.881Z,12.93
2019-05-20T02:57:02.472Z,12.70
2019-05-20T02:59:33.199Z,13.37
2019-05-20T03:02:04.038Z,14.40
2019-05-20T03:04:34.688Z,14.00
2019-05-20T03:07:05.220Z,14.93
2019-05-20T03:09:36.312Z,17.23
2019-05-20T03:12:07.260Z,16.97
2019-05-20T03:14:37.824Z,16.33
2019-05-20T03:17:08.920Z,16.80
2019-05-20T03:19:39.511Z,15.43
2019-05-20T03:22:10.226Z,13.80
2019-05-20T03:24:40.816Z,14.53
2019-05-20T03:27:11.658Z,13.63
2019-05-20T03:29:42.441Z,12.17
2019-05-20T03:32:13.404Z,13.17
2019-05-20T03:34:53.767Z,11.67
2019-05-20T03:37:16.404Z,11.10
2019-05-20T03:39:47.006Z,12.63
2019-05-20T03:42:17.565Z,11.57
2019-05-20T03:44:47.987Z,12.27
2019-05-20T03:47:18.597Z,11.30
2019-05-20T03:49:49.053Z,11.33
2019-05-20T03:52:19.732Z,11.10
2019-05-20T03:54:50.442Z,11.67
2019-05-20T03:57:21.099Z,11.63
2019-05-20T03:59:51.797Z,12.13
2019-05-20T04:02:22.328Z,12.00
2019-05-20T04:05:02.538Z,13.43
2019-05-20T04:07:26.347Z,13.50
2019-05-20T04:09:57.229Z,13.93
2019-05-20T04:12:28.041Z,14.47
2019-05-20T04:14:58.589Z,14.97
2019-05-20T04:17:29.466Z,14.10
2019-05-20T04:20:00.227Z,15.60
2019-05-20T04:22:31.073Z,16.10
2019-05-20T04:25:01.904Z,16.30
2019-05-20T04:27:32.701Z,15.93
2019-05-20T04:30:03.585Z,17.20
2019-05-20T04:32:34.580Z,18.87
2019-05-20T04:35:20.503Z,17.27
2019-05-20T04:37:37.687Z,17.80
2019-05-20T04:40:10.073Z,18.77
2019-05-20T04:42:40.927Z,20.43
2019-05-20T04:45:12.962Z,18.87
2019-05-20T04:47:43.744Z,18.70
2019-05-20T04:50:15.974Z,18.60
2019-05-20T04:52:46.836Z,19.07
2019-05-20T04:55:17.793Z,20.37
2019-05-20T04:57:48.653Z,20.67
2019-05-20T05:00:41.020Z,21.47
2019-05-20T05:03:11.567Z,19.17
2019-05-20T05:05:42.071Z,22.30
2019-05-20T05:08:12.776Z,19.97
2019-05-20T05:10:43.480Z,20.23
2019-05-20T05:13:14.318Z,21.20
2019-05-20T05:15:45.350Z,19.70
2019-05-20T05:18:16.408Z,18.93
2019-05-20T05:20:47.580Z,17.53
2019-05-20T05:23:18.330Z,17.77
2019-05-20T05:25:48.882Z,17.23
2019-05-20T05:28:19.987Z,18.23
2019-05-20T05:30:50.865Z,18.27
2019-05-20T05:33:21.497Z,17.23
2019-05-20T05:35:53.842Z,16.37
2019-05-20T05:38:24.637Z,15.50
2019-05-20T05:40:55.208Z,15.40
2019-05-20T05:43:25.788Z,15.60
2019-05-20T05:45:57.498Z,14.80
2019-05-20T05:48:28.197Z,15.03
2019-05-20T05:50:58.750Z,14.67
2019-05-20T05:53:29.620Z,14.93
2019-05-20T05:56:00.349Z,16.13
2019-05-20T05:58:32.015Z,14.33
2019-05-20T06:01:02.875Z,15.37
2019-05-20T06:03:33.723Z,15.57
2019-05-20T06:06:12.355Z,14.30
2019-05-20T06:08:37.413Z,13.30
2019-05-20T06:11:08.055Z,13.40
2019-05-20T06:13:38.918Z,12.57
2019-05-20T06:16:09.597Z,11.80
2019-05-20T06:18:40.513Z,12.23
2019-05-20T06:21:11.203Z,11.37
2019-05-20T06:23:41.848Z,9.97
2019-05-20T06:26:12.456Z,10.40
2019-05-20T06:28:44.122Z,9.40
2019-05-20T06:31:14.966Z,10.00
2019-05-20T06:33:45.686Z,7.03
2019-05-20T06:36:26.628Z,5.80
2019-05-20T06:39:09.786Z,6.27
2019-05-20T06:41:40.439Z,5.00
2019-05-20T06:44:12.176Z,4.97
2019-05-20T06:46:42.900Z,3.90
2019-05-20T06:49:13.975Z,3.90
2019-05-20T06:51:44.765Z,3.63
2019-05-20T06:54:15.408Z,3.87
2019-05-20T06:56:46.556Z,3.97
2019-05-20T06:59:17.560Z,3.47
2019-05-20T07:01:48.185Z,3.00
2019-05-20T07:04:19.039Z,3.87
2019-05-20T07:06:50.674Z,3.63
2019-05-20T07:09:21.732Z,3.90
2019-05-20T07:11:53.290Z,3.17
2019-05-20T07:14:24.016Z,13.63
2019-05-20T07:16:55.751Z,8.30
2019-05-20T07:19:26.683Z,2.87
2019-05-20T07:21:57.501Z,2.93
2019-05-20T07:24:28.470Z,3.00
2019-05-20T07:26:59.625Z,2.77
2019-05-20T07:29:30.582Z,2.13
2019-05-20T07:32:01.549Z,2.37
2019-05-20T07:34:32.357Z,2.90
2019-05-20T07:37:04.194Z,1.60
2019-05-20T07:39:35.440Z,1.63
2019-05-20T07:42:06.228Z,2.50
2019-05-20T07:44:36.858Z,3.00
2019-05-20T07:47:11.063Z,2.97
2019-05-20T07:49:40.905Z,1.63
2019-05-20T07:52:12.866Z,2.17
2019-05-20T07:54:44.320Z,1.30
2019-05-20T07:57:17.966Z,1.47
2019-05-20T07:59:51.242Z,2.20
2019-05-20T08:02:22.567Z,1.93
2019-05-20T08:04:53.296Z,1.70
2019-05-20T08:07:30.008Z,2.43
2019-05-20T08:09:56.420Z,2.67
2019-05-20T08:12:27.090Z,2.07
2019-05-20T08:14:57.673Z,2.03
2019-05-20T08:17:28.408Z,2.40
2019-05-20T08:20:00.230Z,3.10
2019-05-20T08:22:30.735Z,2.47
2019-05-20T08:25:01.280Z,2.33
2019-05-20T08:27:32.069Z,3.53
2019-05-20T08:30:02.542Z,3.50
2019-05-20T08:32:33.148Z,3.90
2019-05-20T08:35:03.768Z,4.07
2019-05-20T08:37:44.753Z,3.53
2019-05-20T08:40:07.163Z,4.50
2019-05-20T08:42:37.869Z,3.07
2019-05-20T08:45:08.989Z,3.20
2019-05-20T08:47:39.859Z,3.23
2019-05-20T08:50:15.863Z,3.47
2019-05-20T08:52:43.478Z,3.60
2019-05-20T08:55:14.815Z,3.63
2019-05-20T08:57:45.740Z,3.57
2019-05-20T09:00:23.200Z,3.80
2019-05-20T09:02:52.196Z,3.30
2019-05-20T09:05:22.720Z,3.50
2019-05-20T09:08:02.819Z,3.50
2019-05-20T09:10:26.544Z,3.83
2019-05-20T09:12:57.356Z,3.33
2019-05-20T09:15:28.564Z,2.40
2019-05-20T09:18:00.198Z,16.53
2019-05-20T09:20:31.030Z,3.20
2019-05-20T09:23:02.859Z,2.07
2019-05-20T09:25:34.092Z,1.83
2019-05-20T09:28:04.659Z,1.00
2019-05-20T09:30:35.572Z,1.10
2019-05-20T09:33:06.663Z,1.50
2019-05-20T09:35:37.342Z,1.20
2019-05-20T09:38:19.688Z,1.10
2019-05-20T09:40:44.285Z,1.20
2019-05-20T09:43:14.767Z,1.60
2019-05-20T09:45:45.700Z,1.40
2019-05-20T09:48:16.139Z,2.90
2019-05-20T09:50:46.849Z,1.70
2019-05-20T09:53:17.630Z,1.20
2019-05-20T09:55:48.261Z,1.17
2019-05-20T09:58:18.925Z,1.00
2019-05-20T10:00:49.540Z,0.97
2019-05-20T10:03:20.039Z,1.10
2019-05-20T10:05:50.701Z,1.33
2019-05-20T10:08:36.570Z,1.20
2019-05-20T10:10:53.775Z,0.90
2019-05-20T10:13:24.701Z,0.90
2019-05-20T10:15:55.669Z,1.03
2019-05-20T10:18:36.923Z,0.73
2019-05-20T10:20:58.891Z,0.93
2019-05-20T10:23:29.677Z,1.47
2019-05-20T10:26:01.204Z,0.87
2019-05-20T10:28:32.077Z,1.30
2019-05-20T10:31:03.244Z,1.20
2019-05-20T10:33:36.922Z,1.20
2019-05-20T10:36:06.310Z,0.70
2019-05-20T10:38:54.992Z,1.27
2019-05-20T10:41:09.510Z,1.07
2019-05-20T10:43:40.120Z,1.17
2019-05-20T10:46:11.908Z,1.03
2019-05-20T10:48:42.596Z,0.87
2019-05-20T10:51:13.496Z,0.73
2019-05-20T10:53:44.728Z,0.80
2019-05-20T10:56:15.808Z,0.90
2019-05-20T10:58:46.425Z,0.77
2019-05-20T11:01:16.986Z,0.80
2019-05-20T11:03:47.661Z,0.80
2019-05-20T11:06:18.317Z,0.80
2019-05-20T11:08:49.161Z,0.60
2019-05-20T11:11:19.671Z,0.80
2019-05-20T11:13:50.315Z,0.67
2019-05-20T11:16:21.193Z,0.87
2019-05-20T11:18:53.002Z,0.87
2019-05-20T11:21:23.678Z,0.90
2019-05-20T11:23:54.760Z,0.90
2019-05-20T11:26:25.302Z,0.90
2019-05-20T11:28:55.801Z,0.87
2019-05-20T11:31:27.222Z,1.20
2019-05-20T11:33:58.153Z,1.37
2019-05-20T11:36:28.958Z,1.40
2019-05-20T11:39:00.826Z,2.43
2019-05-20T11:41:53.011Z,0.83
2019-05-20T11:44:05.697Z,1.00
2019-05-20T11:46:36.480Z,1.30
2019-05-20T11:49:07.065Z,2.07
2019-05-20T11:51:38.350Z,1.37
2019-05-20T11:54:09.462Z,1.10
2019-05-20T11:56:40.125Z,0.73
2019-05-20T11:59:12.192Z,0.80
2019-05-20T12:01:43.198Z,1.10
2019-05-20T12:04:13.703Z,0.67
2019-05-20T12:06:44.570Z,3.27
2019-05-20T12:09:15.255Z,1.60
2019-05-20T12:11:46.110Z,1.00
2019-05-20T12:14:17.099Z,0.60
2019-05-20T12:16:48.122Z,0.90
2019-05-20T12:19:18.924Z,1.20
2019-05-20T12:21:49.762Z,0.80
2019-05-20T12:24:20.537Z,1.00
2019-05-20T12:26:51.394Z,1.00
2019-05-20T12:29:22.263Z,0.70
2019-05-20T12:31:52.798Z,0.90
2019-05-20T12:34:24.043Z,1.10
2019-05-20T12:36:55.503Z,0.70
2019-05-20T12:39:26.755Z,1.10
2019-05-20T12:41:57.785Z,0.80
2019-05-20T12:44:28.413Z,0.80
2019-05-20T12:46:59.233Z,1.20
2019-05-20T12:49:30.714Z,1.00
2019-05-20T12:52:01.597Z,0.87
2019-05-20T12:54:32.291Z,1.17
2019-05-20T12:57:03.126Z,0.77
2019-05-20T12:59:33.836Z,1.50
2019-05-20T13:02:04.712Z,0.90
2019-05-20T13:04:35.559Z,0.97
2019-05-20T13:07:06.349Z,1.10
2019-05-20T13:09:37.216Z,1.03
2019-05-20T13:12:08.279Z,3.13
2019-05-20T13:14:38.887Z,2.70
2019-05-20T13:17:10.026Z,0.87
2019-05-20T13:19:41.153Z,1.50
2019-05-20T13:22:12.249Z,1.40
2019-05-20T13:24:43.367Z,1.03
2019-05-20T13:27:13.991Z,1.00
2019-05-20T13:29:44.865Z,0.90
2019-05-20T13:32:15.745Z,0.97
2019-05-20T13:34:46.423Z,1.00
2019-05-20T13:37:17.168Z,1.37
2019-05-20T13:39:48.235Z,1.47
2019-05-20T13:42:18.871Z,1.70
2019-05-20T13:44:49.903Z,1.50
2019-05-20T13:47:20.506Z,1.23
2019-05-20T13:49:51.069Z,1.00
2019-05-20T13:52:22.056Z,1.33
2019-05-20T13:54:53.101Z,1.30
2019-05-20T13:57:23.967Z,1.40
2019-05-20T13:59:55.177Z,1.53
2019-05-20T14:02:25.962Z,1.40
2019-05-20T14:04:57.017Z,1.10
2019-05-20T14:07:27.618Z,1.93
2019-05-20T14:09:58.411Z,5.40
2019-05-20T14:12:29.392Z,2.60
2019-05-20T14:15:01.354Z,1.40
2019-05-20T14:17:32.261Z,1.47
2019-05-20T14:20:03.275Z,1.47
2019-05-20T14:22:34.710Z,1.47
2019-05-20T14:25:06.267Z,1.20
2019-05-20T14:27:37.153Z,1.20
2019-05-20T14:30:09.493Z,1.40
2019-05-20T14:32:40.358Z,1.20
2019-05-20T14:35:12.045Z,1.77
2019-05-20T14:37:44.177Z,1.50
2019-05-20T14:40:15.480Z,1.53
2019-05-20T14:42:46.612Z,2.10
2019-05-20T14:45:17.571Z,2.30
2019-05-20T14:47:48.566Z,1.40
2019-05-20T14:50:19.460Z,1.67
2019-05-20T14:52:50.358Z,1.50
2019-05-20T14:55:21.782Z,1.90
2019-05-20T14:57:52.742Z,1.50
2019-05-20T15:00:23.839Z,1.57
2019-05-20T15:02:54.631Z,1.50
2019-05-20T15:05:25.346Z,1.37
2019-05-20T15:07:56.384Z,1.77
2019-05-20T15:10:27.118Z,1.50
2019-05-20T15:12:57.952Z,1.27
2019-05-20T15:15:29.061Z,1.20
2019-05-20T15:18:00.145Z,1.40
2019-05-20T15:20:31.022Z,1.50
2019-05-20T15:23:01.865Z,1.40
2019-05-20T15:25:32.687Z,1.20
2019-05-20T15:28:05.032Z,1.70
2019-05-20T15:30:35.835Z,1.50
2019-05-20T15:33:07.606Z,1.40
2019-05-20T15:35:38.767Z,1.70
2019-05-20T15:38:09.781Z,1.30
2019-05-20T15:40:40.837Z,1.30
2019-05-20T15:43:12.758Z,1.30
2019-05-20T15:45:43.799Z,1.30
2019-05-20T15:48:14.898Z,1.57
2019-05-20T15:50:47.136Z,1.57
2019-05-20T15:53:18.207Z,1.90
2019-05-20T15:55:49.439Z,1.93
2019-05-20T15:58:23.703Z,1.50
2019-05-20T16:00:53.824Z,1.57
2019-05-20T16:03:24.441Z,1.60
2019-05-20T16:05:55.113Z,1.27
2019-05-20T16:08:25.946Z,1.50
2019-05-20T16:10:56.745Z,1.30
2019-05-20T16:13:27.601Z,1.67
2019-05-20T16:15:58.405Z,2.03
2019-05-20T16:18:29.234Z,1.80
2019-05-20T16:21:00.043Z,1.40
2019-05-20T16:23:30.960Z,1.60
2019-05-20T16:26:02.192Z,1.80
2019-05-20T16:28:33.068Z,1.47
2019-05-20T16:31:03.966Z,2.37
2019-05-20T16:33:35.506Z,2.10
2019-05-20T16:36:06.542Z,2.27
2019-05-20T16:38:37.539Z,1.57
2019-05-20T16:41:08.657Z,1.50
2019-05-20T16:43:39.433Z,2.80
2019-05-20T16:46:10.834Z,2.20
2019-05-20T16:48:41.981Z,2.20
2019-05-20T16:51:13.270Z,1.83
2019-05-20T16:53:44.413Z,1.77
2019-05-20T16:56:15.347Z,1.43
2019-05-20T16:58:46.379Z,1.93
2019-05-20T17:01:17.910Z,1.93
2019-05-20T17:03:48.808Z,1.70
2019-05-20T17:06:19.728Z,1.87
2019-05-20T17:08:50.377Z,1.60
2019-05-20T17:11:20.892Z,1.77
2019-05-20T17:13:51.697Z,1.70
2019-05-20T17:16:22.368Z,2.77
2019-05-20T17:18:53.997Z,2.20
2019-05-20T17:21:24.890Z,1.70
2019-05-20T17:23:56.161Z,4.43
2019-05-20T17:26:28.755Z,3.40
2019-05-20T17:28:59.725Z,2.77
2019-05-20T17:31:31.018Z,2.50
2019-05-20T17:34:02.185Z,2.47
2019-05-20T17:36:32.822Z,2.33
2019-05-20T17:39:04.294Z,2.60
2019-05-20T17:41:35.433Z,3.73
2019-05-20T17:44:06.373Z,2.80
2019-05-20T17:46:37.189Z,3.40
2019-05-20T17:49:08.029Z,5.27
2019-05-20T17:51:38.902Z,2.57
2019-05-20T17:54:09.830Z,3.93
2019-05-20T17:56:40.942Z,3.67
2019-05-20T17:59:12.251Z,3.13
2019-05-20T18:01:42.788Z,2.53
2019-05-20T18:04:13.721Z,3.23
2019-05-20T18:06:44.832Z,2.50
2019-05-20T18:09:15.860Z,2.00
2019-05-20T18:11:47.017Z,2.27
2019-05-20T18:14:17.668Z,2.60
2019-05-20T18:16:48.224Z,3.20
2019-05-20T18:19:18.809Z,2.50
2019-05-20T18:21:50.223Z,2.27
2019-05-20T18:24:21.059Z,2.50
2019-05-20T18:26:51.974Z,2.40
2019-05-20T18:29:22.657Z,2.43
2019-05-20T18:31:53.581Z,2.20
2019-05-20T18:34:24.306Z,2.30
2019-05-20T18:36:55.642Z,2.07
2019-05-20T18:39:26.519Z,2.43
2019-05-20T18:41:57.841Z,2.50
2019-05-20T18:44:28.899Z,2.40
2019-05-20T18:46:59.791Z,2.30
2019-05-20T18:49:30.706Z,2.50
2019-05-20T18:52:01.404Z,2.33
2019-05-20T18:54:32.332Z,2.33
2019-05-20T18:57:03.242Z,2.87
2019-05-20T18:59:34.762Z,3.07
2019-05-20T19:02:06.375Z,2.10
2019-05-20T19:04:37.677Z,1.93
2019-05-20T19:07:08.453Z,2.43
2019-05-20T19:09:39.105Z,4.20
2019-05-20T19:12:10.494Z,3.13
2019-05-20T19:14:42.154Z,1.90
2019-05-20T19:17:12.999Z,1.97
2019-05-20T19:19:43.653Z,1.93
2019-05-20T19:22:14.825Z,1.87
2019-05-20T19:24:45.796Z,2.20
2019-05-20T19:27:16.817Z,1.80
2019-05-20T19:29:47.759Z,2.30
2019-05-20T19:32:20.592Z,2.60
2019-05-20T19:34:51.442Z,8.00
2019-05-20T19:37:22.576Z,4.20
2019-05-20T19:39:53.456Z,4.47
2019-05-20T19:42:24.381Z,3.98
2019-05-20T19:44:55.306Z,4.03
2019-05-20T19:47:27.110Z,6.60
2019-05-20T19:49:57.969Z,4.00
2019-05-20T19:52:29.334Z,4.30
2019-05-20T19:55:00.066Z,4.70
2019-05-20T19:57:30.997Z,4.20
2019-05-20T20:00:01.578Z,4.40
2019-05-20T20:02:32.394Z,5.10
2019-05-20T20:05:03.179Z,4.60
2019-05-20T20:07:33.956Z,5.03
2019-05-20T20:10:04.993Z,5.47
2019-05-20T20:12:37.520Z,4.93
2019-05-20T20:15:08.800Z,5.23
2019-05-20T20:17:39.455Z,5.37
2019-05-20T20:20:10.024Z,5.63
2019-05-20T20:22:40.548Z,86.27
2019-05-20T20:25:11.366Z,13.43
2019-05-20T20:27:42.118Z,7.77
2019-05-20T20:30:12.980Z,6.33
2019-05-20T20:32:43.742Z,5.97
2019-05-20T20:35:14.781Z,8.53
2019-05-20T20:37:45.485Z,10.03
2019-05-20T20:40:16.475Z,7.37
2019-05-20T20:42:47.114Z,5.80
2019-05-20T20:45:17.906Z,5.50
2019-05-20T20:47:48.835Z,5.93
2019-05-20T20:50:19.353Z,6.73
2019-05-20T20:52:50.116Z,5.63
2019-05-20T20:55:21.391Z,5.57
2019-05-20T20:57:52.516Z,6.10
2019-05-20T21:00:23.555Z,6.47
2019-05-20T21:02:54.574Z,8.50
2019-05-20T21:05:25.679Z,7.40
2019-05-20T21:07:56.862Z,6.27
2019-05-20T21:10:27.858Z,6.63
2019-05-20T21:12:58.999Z,7.33
2019-05-20T21:15:29.985Z,6.80
2019-05-20T21:18:00.880Z,6.10
2019-05-20T21:20:31.669Z,6.33
2019-05-20T21:23:02.557Z,7.13
2019-05-20T21:25:33.035Z,7.30
2019-05-20T21:28:03.743Z,7.13
2019-05-20T21:30:34.208Z,7.30
2019-05-20T21:33:09.322Z,6.77
2019-05-20T21:35:37.322Z,6.77
2019-05-20T21:38:07.760Z,7.93
2019-05-20T21:40:38.518Z,7.80
2019-05-20T21:43:09.028Z,22.83
2019-05-20T21:45:39.636Z,10.47
2019-05-20T21:48:10.336Z,8.43
2019-05-20T21:50:42.262Z,8.03
2019-05-20T21:53:12.807Z,7.70
2019-05-20T21:55:44.355Z,8.00
2019-05-20T21:58:14.839Z,7.30
2019-05-20T22:01:04.145Z,7.30
2019-05-20T22:03:35.087Z,7.97
2019-05-20T22:06:06.207Z,7.07
2019-05-20T22:08:36.721Z,7.63
2019-05-20T22:11:07.560Z,7.47
2019-05-20T22:13:38.395Z,8.40
2019-05-20T22:16:09.166Z,7.23
2019-05-20T22:18:40.004Z,8.23
2019-05-20T22:21:12.031Z,8.87
2019-05-20T22:23:50.994Z,21.77
2019-05-20T22:26:21.672Z,18.50
2019-05-20T22:28:52.508Z,17.50
2019-05-20T22:31:22.936Z,9.40
2019-05-20T22:33:53.419Z,9.03
2019-05-20T22:36:23.953Z,8.57
2019-05-20T22:38:54.920Z,9.10
2019-05-20T22:41:25.603Z,8.30
2019-05-20T22:43:56.735Z,9.93
2019-05-20T22:46:27.255Z,9.60
2019-05-20T22:48:57.806Z,10.00
2019-05-20T22:51:28.512Z,9.20
2019-05-20T22:53:59.119Z,9.97
2019-05-20T22:56:29.907Z,9.03
2019-05-20T22:59:00.658Z,9.67
2019-05-20T23:01:31.300Z,9.53
2019-05-20T23:04:01.983Z,9.67
2019-05-20T23:06:32.799Z,8.87
2019-05-20T23:09:04.916Z,9.53
2019-05-20T23:11:35.839Z,10.83
2019-05-20T23:14:06.864Z,8.93
2019-05-20T23:16:37.565Z,8.80
2019-05-20T23:19:08.396Z,9.00
2019-05-20T23:21:39.093Z,8.97
2019-05-20T23:24:09.821Z,8.50
2019-05-20T23:26:40.524Z,8.03
2019-05-20T23:29:11.317Z,9.60
2019-05-20T23:31:41.874Z,8.57
2019-05-20T23:34:13.359Z,8.53
2019-05-20T23:36:43.976Z,8.57
2019-05-20T23:39:14.697Z,8.63
2019-05-20T23:41:45.759Z,8.27
2019-05-20T23:44:16.607Z,9.33
2019-05-20T23:46:47.357Z,8.77
2019-05-20T23:49:17.905Z,8.17
2019-05-20T23:51:48.479Z,8.00
2019-05-20T23:54:18.989Z,7.33
2019-05-20T23:56:49.517Z,7.70
2019-05-20T23:59:22.031Z,7.93
